Time;durP1;ratioP1;P1;durP2;ratioP2;P2;SDS_P1;SDS_P2;PMS_P1;PMS_P2;Temp;Humidity;BMP_temperature;BMP_pressure;BME280_temperature;BME280_humidity;BME280_pressure;Samples;Min_cycle;Max_cycle;Signal;HPM_P1;HPM_P2
2021/01/31 00:01:48;;;;;;;39.83;17.67;;;-0.60;99.90;;;;;;5084184;28;20040;-68
2021/01/31 00:04:14;;;;;;;47.45;19.38;;;-0.60;99.90;;;;;;5082786;28;20035;-68
2021/01/31 00:06:40;;;;;;;41.90;18.00;;;-0.70;99.90;;;;;;5082401;28;20418;-67
2021/01/31 00:09:08;;;;;;;41.50;18.10;;;-0.80;99.90;;;;;;5080825;28;20089;-69
2021/01/31 00:11:34;;;;;;;40.08;17.88;;;-0.80;99.90;;;;;;5067772;28;20032;-68
2021/01/31 00:13:59;;;;;;;46.28;19.90;;;-0.80;99.90;;;;;;5087628;28;20022;-71
2021/01/31 00:16:25;;;;;;;46.53;20.25;;;-0.80;99.90;;;;;;5070358;28;20036;-68
2021/01/31 00:18:50;;;;;;;47.83;20.38;;;-0.90;99.90;;;;;;5085159;28;20041;-67
2021/01/31 00:21:17;;;;;;;44.47;18.70;;;-0.90;99.90;;;;;;5085159;28;20066;-69
2021/01/31 00:23:43;;;;;;;47.35;18.90;;;-0.90;99.90;;;;;;5084592;28;20039;-67
2021/01/31 00:26:09;;;;;;;44.78;18.38;;;-0.90;99.90;;;;;;5082354;28;20020;-69
2021/01/31 00:28:34;;;;;;;42.65;18.80;;;-0.90;99.90;;;;;;5085163;28;20481;-69
2021/01/31 00:31:00;;;;;;;50.50;19.15;;;-0.90;99.90;;;;;;5087000;28;20027;-68
2021/01/31 00:33:28;;;;;;;43.38;19.30;;;-0.90;99.90;;;;;;5058934;28;20106;-68
2021/01/31 00:35:55;;;;;;;51.25;20.98;;;-0.90;99.90;;;;;;5087211;28;20028;-70
2021/01/31 00:38:23;;;;;;;43.85;18.30;;;-0.90;99.90;;;;;;5090860;28;20112;-67
2021/01/31 00:40:49;;;;;;;50.15;19.75;;;-0.90;99.90;;;;;;5050922;28;20465;-68
2021/01/31 00:43:15;;;;;;;47.05;19.67;;;-1.00;99.90;;;;;;5091038;28;20087;-67
2021/01/31 00:45:42;;;;;;;51.35;21.08;;;-1.10;99.90;;;;;;5091122;28;20119;-68
2021/01/31 00:48:08;;;;;;;46.45;19.83;;;-1.10;99.90;;;;;;5090327;28;20481;-68
2021/01/31 00:50:37;;;;;;;46.88;19.30;;;-1.10;99.90;;;;;;5094139;28;20036;-67
2021/01/31 00:53:04;;;;;;;46.45;20.55;;;-1.10;99.90;;;;;;5086921;28;20316;-69
2021/01/31 00:55:29;;;;;;;50.40;20.10;;;-1.10;99.90;;;;;;5068215;28;20032;-68
2021/01/31 00:57:55;;;;;;;50.20;21.15;;;-1.20;99.90;;;;;;5089830;28;20111;-69
2021/01/31 01:00:26;;;;;;;45.78;18.75;;;-1.20;99.90;;;;;;5086338;28;20068;-66
2021/01/31 01:02:51;;;;;;;48.65;20.73;;;-1.20;99.90;;;;;;5086379;28;20621;-68
2021/01/31 01:05:19;;;;;;;47.22;19.17;;;-1.20;99.90;;;;;;5071412;28;20119;-66
2021/01/31 01:07:47;;;;;;;49.75;20.55;;;-1.30;99.90;;;;;;5057017;28;20107;-67
2021/01/31 01:10:15;;;;;;;51.17;20.05;;;-1.30;99.90;;;;;;5089329;28;20112;-67
2021/01/31 01:12:41;;;;;;;46.78;19.58;;;-1.30;99.90;;;;;;5090586;28;20469;-67
2021/01/31 01:15:10;;;;;;;47.95;20.75;;;-1.30;99.90;;;;;;5091101;28;20066;-68
2021/01/31 01:17:36;;;;;;;49.45;21.55;;;-1.40;99.90;;;;;;5070226;28;20507;-67
2021/01/31 01:20:03;;;;;;;53.33;21.35;;;-1.40;99.90;;;;;;5091175;28;20026;-67
2021/01/31 01:22:29;;;;;;;48.08;19.88;;;-1.40;99.90;;;;;;5072189;28;20030;-68
2021/01/31 01:24:56;;;;;;;45.35;19.35;;;-1.50;99.90;;;;;;5068789;28;20040;-69
2021/01/31 01:27:23;;;;;;;53.53;20.60;;;-1.40;99.90;;;;;;5072143;28;20081;-67
2021/01/31 01:29:49;;;;;;;58.30;23.55;;;-1.50;99.90;;;;;;5089507;28;20541;-68
2021/01/31 01:32:15;;;;;;;50.55;21.42;;;-1.50;99.90;;;;;;5097999;28;20103;-68
2021/01/31 01:34:42;;;;;;;50.33;20.35;;;-1.40;99.90;;;;;;5071990;28;20493;-69
2021/01/31 01:37:12;;;;;;;50.30;20.42;;;-1.50;99.90;;;;;;5067037;28;20196;-69
2021/01/31 01:39:37;;;;;;;49.15;20.70;;;-1.50;99.90;;;;;;5082418;28;20420;-68
2021/01/31 01:42:06;;;;;;;48.97;21.30;;;-1.50;99.90;;;;;;5090454;28;20040;-68
2021/01/31 01:44:32;;;;;;;55.22;22.52;;;-1.50;99.90;;;;;;5085256;28;20509;-68
2021/01/31 01:46:59;;;;;;;50.33;21.25;;;-1.50;99.90;;;;;;5090376;28;20024;-67
2021/01/31 01:49:30;;;;;;;54.65;22.35;;;-1.50;99.90;;;;;;5084694;28;20094;-70
2021/01/31 01:52:07;;;;;;;52.10;23.10;;;-1.60;99.90;;;;;;5089746;28;20028;-67
2021/01/31 01:54:36;;;;;;;53.00;22.30;;;-1.50;99.90;;;;;;5082530;28;20074;-69
2021/01/31 01:57:10;;;;;;;54.30;21.58;;;-1.60;99.90;;;;;;5090275;28;20032;-68
2021/01/31 01:59:37;;;;;;;51.55;23.30;;;-1.60;99.90;;;;;;5076463;28;20028;-70
2021/01/31 02:02:27;;;;;;;56.75;22.33;;;-1.60;99.90;;;;;;5088472;28;20509;-67
2021/01/31 02:04:54;;;;;;;47.20;20.85;;;-1.60;99.90;;;;;;5089456;28;20480;-68
2021/01/31 02:07:20;;;;;;;49.50;21.38;;;-1.60;99.90;;;;;;5092198;28;20035;-67
2021/01/31 02:09:50;;;;;;;50.50;21.40;;;-1.70;99.90;;;;;;5089426;28;20020;-69
2021/01/31 02:12:21;;;;;;;53.55;21.65;;;-1.70;99.90;;;;;;5088499;28;20190;-70
2021/01/31 02:14:49;;;;;;;47.05;20.05;;;-1.70;99.90;;;;;;5097625;28;20016;-67
2021/01/31 02:17:55;;;;;;;51.47;21.83;;;-1.70;99.90;;;;;;5091871;28;20089;-68
2021/01/31 02:20:42;;;;;;;45.42;20.52;;;-1.70;99.90;;;;;;5026332;28;20036;-69
2021/01/31 02:23:41;;;;;;;53.53;22.15;;;-1.70;99.90;;;;;;5076301;28;20027;-67
2021/01/31 02:26:13;;;;;;;55.95;22.15;;;-1.70;99.90;;;;;;5090318;28;20107;-68
2021/01/31 02:28:48;;;;;;;54.88;21.83;;;-1.80;99.90;;;;;;5085896;28;20073;-67
2021/01/31 02:31:57;;;;;;;58.22;22.33;;;-1.80;99.90;;;;;;5086965;28;20035;-68
2021/01/31 02:34:27;;;;;;;54.63;22.75;;;-1.80;99.90;;;;;;5077778;28;20059;-67
2021/01/31 02:37:04;;;;;;;55.10;22.40;;;-1.80;99.90;;;;;;5085668;28;20050;-67
2021/01/31 02:40:06;;;;;;;61.92;23.13;;;-1.80;99.90;;;;;;5090537;28;20557;-68
2021/01/31 02:42:41;;;;;;;53.67;22.08;;;-1.80;99.90;;;;;;5075910;28;20085;-70
2021/01/31 02:45:09;;;;;;;50.85;20.77;;;-1.80;99.90;;;;;;5086743;28;20016;-68
2021/01/31 02:47:42;;;;;;;52.30;20.90;;;-1.80;99.90;;;;;;5089387;28;20055;-66
2021/01/31 02:50:12;;;;;;;54.75;22.75;;;-1.90;99.90;;;;;;5071094;28;20393;-67
2021/01/31 02:52:49;;;;;;;56.58;23.60;;;-1.80;99.90;;;;;;5088116;28;20024;-68
2021/01/31 02:55:28;;;;;;;52.92;22.67;;;-1.90;99.90;;;;;;5087103;28;20032;-68
2021/01/31 02:58:12;;;;;;;52.80;24.25;;;-1.90;99.90;;;;;;5090656;28;20062;-67
2021/01/31 03:00:53;;;;;;;63.70;24.65;;;-1.90;99.90;;;;;;5079998;28;20060;-68
2021/01/31 03:03:46;;;;;;;58.33;22.92;;;-1.90;99.90;;;;;;5087938;28;20407;-66
2021/01/31 03:06:19;;;;;;;53.83;22.58;;;-1.90;99.90;;;;;;5087030;28;20434;-68
2021/01/31 03:08:51;;;;;;;54.28;23.15;;;-1.90;99.90;;;;;;5088118;28;20019;-69
2021/01/31 03:11:27;;;;;;;53.08;23.25;;;-1.90;99.90;;;;;;5061395;28;20128;-69
2021/01/31 03:14:04;;;;;;;56.35;23.25;;;-1.90;99.90;;;;;;5088399;28;20020;-67
2021/01/31 03:17:03;;;;;;;58.70;23.85;;;-1.90;99.90;;;;;;5073702;28;20028;-69
2021/01/31 03:19:48;;;;;;;56.40;23.67;;;-2.00;99.90;;;;;;5044917;28;20051;-68
2021/01/31 03:22:19;;;;;;;56.40;23.25;;;-2.00;99.90;;;;;;5052117;28;20367;-68
2021/01/31 03:24:54;;;;;;;57.70;24.85;;;-1.90;99.90;;;;;;5063111;28;20016;-70
2021/01/31 03:27:34;;;;;;;54.53;23.52;;;-1.90;99.90;;;;;;5068726;28;20028;-67
2021/01/31 03:29:59;;;;;;;58.92;24.45;;;-2.00;99.90;;;;;;5069275;28;20237;-67
2021/01/31 03:32:30;;;;;;;59.45;23.55;;;-2.00;99.90;;;;;;5066030;28;20500;-68
2021/01/31 03:34:58;;;;;;;53.85;23.08;;;-2.00;99.90;;;;;;5061848;28;20025;-70
2021/01/31 03:37:31;;;;;;;60.65;24.27;;;-2.00;99.90;;;;;;5062567;28;20103;-69
2021/01/31 03:39:58;;;;;;;57.63;23.88;;;-2.00;99.90;;;;;;5056086;28;20020;-68
2021/01/31 03:42:24;;;;;;;60.53;25.00;;;-2.10;99.90;;;;;;5077833;28;20449;-68
2021/01/31 03:44:55;;;;;;;54.60;22.45;;;-2.10;99.90;;;;;;5027287;28;20017;-68
2021/01/31 03:47:20;;;;;;;63.08;24.63;;;-2.10;99.90;;;;;;5072694;28;20024;-69
2021/01/31 03:49:56;;;;;;;56.08;23.73;;;-2.10;99.90;;;;;;5075394;28;20324;-67
2021/01/31 03:52:24;;;;;;;59.40;23.95;;;-2.10;99.90;;;;;;5075111;28;20031;-66
2021/01/31 03:54:50;;;;;;;59.75;24.55;;;-2.10;99.90;;;;;;5074713;28;20099;-69
2021/01/31 03:57:53;;;;;;;59.33;24.67;;;-2.10;99.90;;;;;;5060545;28;20108;-68
2021/01/31 04:00:35;;;;;;;59.88;23.63;;;-2.10;99.90;;;;;;5018643;28;20049;-69
2021/01/31 04:03:12;;;;;;;60.47;24.17;;;-2.10;99.90;;;;;;5078608;28;20035;-67
2021/01/31 04:05:47;;;;;;;62.42;24.42;;;-2.10;99.90;;;;;;5073208;28;20039;-68
2021/01/31 04:08:15;;;;;;;53.53;24.15;;;-2.10;99.90;;;;;;5072677;28;20576;-68
2021/01/31 04:10:42;;;;;;;63.53;24.58;;;-2.10;99.90;;;;;;5074233;28;20618;-68
2021/01/31 04:13:09;;;;;;;56.75;25.30;;;-2.10;99.90;;;;;;5062602;28;20470;-68
2021/01/31 04:15:45;;;;;;;59.10;24.10;;;-2.10;99.90;;;;;;5074652;28;20492;-69
2021/01/31 04:18:12;;;;;;;55.88;23.25;;;-2.10;99.90;;;;;;5066711;28;20127;-69
2021/01/31 04:20:38;;;;;;;56.92;23.38;;;-2.10;99.90;;;;;;5087104;28;20048;-68
2021/01/31 04:23:05;;;;;;;58.78;24.25;;;-2.00;99.90;;;;;;5088036;28;20515;-68
2021/01/31 04:25:30;;;;;;;60.15;24.65;;;-2.10;99.90;;;;;;5088442;28;20202;-68
2021/01/31 04:27:56;;;;;;;58.55;24.65;;;-2.10;99.90;;;;;;5085584;28;20129;-69
2021/01/31 04:30:22;;;;;;;53.72;23.17;;;-2.10;99.90;;;;;;5094696;28;20024;-69
2021/01/31 04:32:49;;;;;;;58.63;23.13;;;-2.10;99.90;;;;;;5093501;28;20185;-69
2021/01/31 04:35:16;;;;;;;54.67;24.50;;;-2.10;99.90;;;;;;5074214;28;20451;-68
2021/01/31 04:37:42;;;;;;;59.10;23.98;;;-2.20;99.90;;;;;;5073882;28;20101;-70
2021/01/31 04:40:12;;;;;;;53.20;23.05;;;-2.20;99.90;;;;;;5068646;28;20123;-69
2021/01/31 04:42:40;;;;;;;58.75;23.75;;;-2.20;99.90;;;;;;5083327;28;20040;-67
2021/01/31 04:45:10;;;;;;;53.75;23.52;;;-2.20;99.90;;;;;;5093799;28;20062;-69
2021/01/31 04:47:58;;;;;;;60.20;24.20;;;-2.20;99.90;;;;;;5093639;28;20028;-67
2021/01/31 04:50:48;;;;;;;56.05;24.95;;;-2.20;99.90;;;;;;5066290;28;20229;-69
2021/01/31 04:53:37;;;;;;;61.08;26.15;;;-2.30;99.90;;;;;;5094145;28;20511;-68
2021/01/31 04:56:24;;;;;;;61.83;25.73;;;-2.30;99.90;;;;;;5093840;28;20065;-69
2021/01/31 04:58:53;;;;;;;60.88;24.58;;;-2.30;99.90;;;;;;5090401;28;20045;-70
2021/01/31 05:01:22;;;;;;;59.85;25.38;;;-2.30;99.90;;;;;;5090846;28;20055;-70
2021/01/31 05:04:07;;;;;;;59.95;24.77;;;-2.30;99.90;;;;;;5090683;28;20050;-68
2021/01/31 05:06:41;;;;;;;57.78;23.95;;;-2.30;99.90;;;;;;5091167;28;20034;-69
2021/01/31 05:09:13;;;;;;;60.60;26.20;;;-2.30;99.90;;;;;;5071546;28;20034;-68
2021/01/31 05:11:43;;;;;;;;;;;-2.40;99.90;;;;;;5091430;28;20024;-70
2021/01/31 05:14:40;;;;;;;60.42;25.80;;;-2.40;99.90;;;;;;5073983;28;20369;-68
2021/01/31 05:17:06;;;;;;;52.40;23.17;;;-2.40;99.90;;;;;;5025212;28;20477;-68
2021/01/31 05:19:34;;;;;;;54.53;24.83;;;-2.40;99.90;;;;;;5090221;28;20048;-68
2021/01/31 05:22:01;;;;;;;60.13;23.83;;;-2.40;99.90;;;;;;5085953;28;20039;-69
2021/01/31 05:24:28;;;;;;;65.05;25.58;;;-2.40;99.90;;;;;;5055617;28;20024;-69
2021/01/31 05:27:01;;;;;;;54.97;24.67;;;-2.30;99.90;;;;;;5074276;28;20020;-67
2021/01/31 05:29:37;;;;;;;57.65;24.77;;;-2.30;99.90;;;;;;5092377;28;20039;-68
2021/01/31 05:32:15;;;;;;;55.55;23.33;;;-2.40;99.90;;;;;;5072060;28;20538;-68
2021/01/31 05:34:49;;;;;;;57.45;24.17;;;-2.40;99.90;;;;;;5092245;28;20019;-69
2021/01/31 05:37:25;;;;;;;58.30;24.85;;;-2.40;99.90;;;;;;5084294;28;20023;-69
2021/01/31 05:40:05;;;;;;;54.35;24.70;;;-2.40;99.90;;;;;;5089597;28;20042;-69
2021/01/31 05:42:34;;;;;;;56.25;24.00;;;-2.40;99.90;;;;;;5089999;28;20335;-69
2021/01/31 05:45:31;;;;;;;60.03;25.85;;;-2.50;99.90;;;;;;5075972;28;20107;-68
2021/01/31 05:47:57;;;;;;;58.97;24.67;;;-2.50;99.90;;;;;;5084853;28;20099;-67
2021/01/31 05:50:40;;;;;;;55.15;24.33;;;-2.50;99.90;;;;;;5072283;28;20451;-67
2021/01/31 05:53:36;;;;;;;60.42;25.77;;;-2.50;99.90;;;;;;5049428;28;20032;-67
2021/01/31 05:56:25;;;;;;;59.95;24.85;;;-2.60;99.90;;;;;;5079286;28;20028;-68
2021/01/31 05:59:02;;;;;;;58.40;22.55;;;-2.50;99.90;;;;;;5065601;28;20136;-67
2021/01/31 06:01:28;;;;;;;55.83;23.98;;;-2.50;99.90;;;;;;5088728;28;20085;-68
2021/01/31 06:04:15;;;;;;;58.78;23.42;;;-2.50;99.90;;;;;;5064705;28;20028;-68
2021/01/31 06:06:45;;;;;;;53.17;23.08;;;-2.50;99.90;;;;;;5089803;28;20016;-69
2021/01/31 06:09:49;;;;;;;57.05;25.25;;;-2.60;99.90;;;;;;5084803;28;20453;-69
2021/01/31 06:12:26;;;;;;;71.47;27.13;;;-2.70;99.90;;;;;;5062018;28;20043;-69
2021/01/31 06:15:25;;;;;;;56.10;24.83;;;-2.60;99.90;;;;;;5090665;28;20115;-69
2021/01/31 06:18:03;;;;;;;56.78;24.10;;;-2.60;99.90;;;;;;5088420;28;20154;-67
2021/01/31 06:20:36;;;;;;;59.78;25.70;;;-2.60;99.90;;;;;;5086998;28;20032;-67
2021/01/31 06:23:04;;;;;;;58.80;24.88;;;-2.60;99.90;;;;;;5084399;28;20032;-66
2021/01/31 06:25:29;;;;;;;60.60;25.98;;;-2.70;99.90;;;;;;5065836;28;20408;-67
2021/01/31 06:28:15;;;;;;;55.47;22.77;;;-2.70;99.90;;;;;;5084788;28;20024;-70
2021/01/31 06:30:55;;;;;;;61.88;25.48;;;-2.70;99.90;;;;;;5080545;28;20507;-68
2021/01/31 06:33:33;;;;;;;60.90;25.30;;;-2.70;99.90;;;;;;5069216;28;20039;-67
2021/01/31 06:36:08;;;;;;;58.55;25.17;;;-2.70;99.90;;;;;;5086772;28;20477;-67
2021/01/31 06:38:51;;;;;;;63.35;25.77;;;-2.70;99.90;;;;;;5069486;28;20036;-67
2021/01/31 06:41:35;;;;;;;67.53;24.25;;;-2.70;99.90;;;;;;5067129;28;20039;-69
2021/01/31 06:44:05;;;;;;;63.70;25.45;;;-2.70;99.90;;;;;;5086359;28;20048;-68
2021/01/31 06:47:00;;;;;;;63.17;25.95;;;-2.80;99.90;;;;;;5086527;28;20811;-68
2021/01/31 06:50:05;;;;;;;66.70;25.25;;;-2.80;99.90;;;;;;5071385;28;20028;-66
2021/01/31 06:52:52;;;;;;;65.88;27.17;;;-2.80;99.90;;;;;;5088592;28;20150;-69
2021/01/31 06:55:42;;;;;;;65.18;27.55;;;-2.80;99.90;;;;;;5083544;28;20473;-66
2021/01/31 06:58:49;;;;;;;62.45;25.83;;;-2.80;99.90;;;;;;5088918;28;20020;-68
2021/01/31 07:01:45;;;;;;;64.47;27.80;;;-2.90;99.90;;;;;;5078847;28;20066;-67
2021/01/31 07:04:35;;;;;;;64.40;27.20;;;-2.90;99.90;;;;;;5085251;28;20062;-66
2021/01/31 07:07:06;;;;;;;60.80;24.77;;;-2.90;99.90;;;;;;5082122;28;20027;-69
2021/01/31 07:10:06;;;;;;;67.93;26.65;;;-2.90;99.90;;;;;;5083984;28;20047;-67
2021/01/31 07:12:57;;;;;;;66.05;26.10;;;-2.90;99.90;;;;;;5084547;28;20028;-66
2021/01/31 07:15:25;;;;;;;73.30;26.42;;;-2.90;99.90;;;;;;5087557;28;20028;-65
2021/01/31 07:17:57;;;;;;;69.78;26.50;;;-2.90;99.90;;;;;;5069932;28;20047;-67
2021/01/31 07:20:33;;;;;;;67.78;26.60;;;-2.90;99.90;;;;;;5087904;28;20168;-67
2021/01/31 07:23:10;;;;;;;68.03;27.52;;;-2.90;99.90;;;;;;5087376;28;20119;-68
2021/01/31 07:25:40;;;;;;;67.05;27.27;;;-2.90;99.90;;;;;;5083158;28;20038;-67
2021/01/31 07:28:37;;;;;;;67.28;27.50;;;-2.90;99.90;;;;;;5081927;28;20077;-67
2021/01/31 07:31:18;;;;;;;73.50;27.88;;;-2.90;99.90;;;;;;5066412;28;20473;-68
2021/01/31 07:33:57;;;;;;;75.53;28.73;;;-2.90;99.90;;;;;;5082068;28;20038;-67
2021/01/31 07:36:29;;;;;;;68.80;27.70;;;-2.90;99.90;;;;;;5086944;28;20026;-67
2021/01/31 07:39:00;;;;;;;66.25;26.27;;;-2.90;99.90;;;;;;5066990;28;20035;-68
2021/01/31 07:41:28;;;;;;;62.97;27.60;;;-2.80;99.90;;;;;;5082504;28;20050;-68
2021/01/31 07:44:13;;;;;;;59.75;25.20;;;-2.80;99.90;;;;;;5086649;28;20024;-68
2021/01/31 07:46:40;;;;;;;62.30;25.33;;;-2.80;99.90;;;;;;5084825;28;20429;-66
2021/01/31 07:49:06;;;;;;;67.82;26.30;;;-2.80;99.90;;;;;;5090645;28;20016;-67
2021/01/31 07:51:38;;;;;;;66.38;26.52;;;-2.80;99.90;;;;;;5086697;28;20100;-65
2021/01/31 07:54:26;;;;;;;61.80;24.85;;;-2.80;99.90;;;;;;5086071;28;20151;-66
2021/01/31 07:57:17;;;;;;;71.07;27.23;;;-2.70;99.90;;;;;;5084631;28;20453;-68
2021/01/31 07:59:43;;;;;;;57.30;25.70;;;-2.70;99.90;;;;;;5072856;28;20048;-65
2021/01/31 08:02:09;;;;;;;63.22;25.50;;;-2.70;99.90;;;;;;5092286;28;20028;-65
2021/01/31 08:04:35;;;;;;;65.20;26.33;;;-2.70;99.90;;;;;;5077552;28;20240;-67
2021/01/31 08:07:05;;;;;;;60.10;25.77;;;-2.70;99.90;;;;;;5069501;28;20031;-67
2021/01/31 08:09:32;;;;;;;64.32;25.38;;;-2.70;99.90;;;;;;5076613;28;20055;-67
2021/01/31 08:12:02;;;;;;;58.65;24.77;;;-2.70;99.90;;;;;;5084386;28;20126;-67
2021/01/31 08:15:05;;;;;;;59.55;25.33;;;-2.70;99.90;;;;;;5093186;28;20085;-68
2021/01/31 08:17:47;;;;;;;;;;;-2.70;99.90;;;;;;5083570;28;20078;-68
2021/01/31 08:20:38;;;;;;;49.85;22.63;;;-2.60;99.90;;;;;;5088192;28;20046;-67
2021/01/31 08:23:23;;;;;;;64.47;26.05;;;-2.70;99.90;;;;;;5075351;28;20127;-67
2021/01/31 08:26:01;;;;;;;66.40;27.30;;;-2.70;99.90;;;;;;5084241;28;20027;-69
2021/01/31 08:28:31;;;;;;;60.78;26.63;;;-2.70;99.90;;;;;;5084036;28;20024;-66
2021/01/31 08:31:06;;;;;;;53.83;23.42;;;-2.70;99.90;;;;;;5084861;28;20031;-68
2021/01/31 08:33:37;;;;;;;66.20;26.30;;;-2.70;99.90;;;;;;5062098;28;20092;-70
2021/01/31 08:36:21;;;;;;;58.63;25.38;;;-2.70;99.90;;;;;;5080968;28;20020;-70
2021/01/31 08:38:51;;;;;;;62.42;25.17;;;-2.70;99.90;;;;;;5091513;28;20555;-68
2021/01/31 08:41:25;;;;;;;53.00;23.25;;;-2.60;99.90;;;;;;5090290;28;20032;-68
2021/01/31 08:43:55;;;;;;;60.97;25.75;;;-2.60;99.90;;;;;;5087591;28;20051;-69
2021/01/31 08:46:29;;;;;;;55.40;22.48;;;-2.50;99.90;;;;;;5092108;28;20085;-67
2021/01/31 08:49:14;;;;;;;60.78;28.15;;;-2.50;99.90;;;;;;5089741;28;20055;-68
2021/01/31 08:51:43;;;;;;;58.13;24.23;;;-2.50;99.90;;;;;;5091920;28;20385;-68
2021/01/31 08:54:28;;;;;;;59.40;24.05;;;-2.40;99.90;;;;;;5073637;28;20359;-68
2021/01/31 08:57:02;;;;;;;57.53;25.35;;;-2.30;99.90;;;;;;5091974;28;20043;-68
2021/01/31 08:59:46;;;;;;;57.40;24.38;;;-2.30;99.90;;;;;;5074759;28;20036;-70
2021/01/31 09:02:19;;;;;;;57.95;24.13;;;-2.30;99.90;;;;;;5094778;28;20028;-69
2021/01/31 09:04:48;;;;;;;53.92;22.95;;;-2.30;99.90;;;;;;5087262;28;20040;-68
2021/01/31 09:07:21;;;;;;;51.63;23.05;;;-2.20;99.90;;;;;;5097915;28;20027;-70
2021/01/31 09:09:53;;;;;;;56.35;23.75;;;-2.20;99.90;;;;;;5072990;28;20383;-68
2021/01/31 09:12:21;;;;;;;54.78;22.92;;;-2.10;99.90;;;;;;5087220;28;20028;-68
2021/01/31 09:14:46;;;;;;;56.47;24.83;;;-2.10;99.90;;;;;;5084820;28;20024;-68
2021/01/31 09:17:24;;;;;;;51.50;22.77;;;-2.10;99.90;;;;;;5089522;28;20477;-68
2021/01/31 09:20:06;;;;;;;56.10;24.45;;;-2.10;99.90;;;;;;5089298;28;20036;-69
2021/01/31 09:22:32;;;;;;;58.05;24.58;;;-2.00;99.90;;;;;;5090906;28;20156;-70
2021/01/31 09:25:01;;;;;;;48.45;22.05;;;-1.90;99.90;;;;;;5089939;28;20509;-68
2021/01/31 09:27:29;;;;;;;52.08;23.13;;;-1.80;99.90;;;;;;5089455;28;20297;-68
2021/01/31 09:30:06;;;;;;;52.60;22.80;;;-1.70;99.90;;;;;;5089940;28;20028;-69
2021/01/31 09:32:47;;;;;;;48.33;21.42;;;-1.70;99.90;;;;;;5071693;28;20024;-69
2021/01/31 09:35:23;;;;;;;45.20;21.20;;;-1.60;99.90;;;;;;5075674;28;20472;-68
2021/01/31 09:37:51;;;;;;;50.33;23.00;;;-1.50;99.90;;;;;;5084783;28;20020;-69
2021/01/31 09:40:18;;;;;;;46.88;20.90;;;-1.50;99.90;;;;;;5090426;28;20020;-68
2021/01/31 09:42:44;;;;;;;53.33;21.83;;;-1.40;99.90;;;;;;5090921;28;20685;-71
2021/01/31 09:45:37;;;;;;;51.42;22.42;;;-1.40;99.90;;;;;;5089150;28;20525;-68
2021/01/31 09:48:06;;;;;;;49.72;22.65;;;-1.30;99.90;;;;;;5087493;28;20150;-69
2021/01/31 09:50:32;;;;;;;41.92;20.25;;;-1.30;99.90;;;;;;5086898;28;20139;-69
2021/01/31 09:52:58;;;;;;;44.53;20.38;;;-1.20;99.90;;;;;;5070651;28;20035;-67
2021/01/31 09:55:40;;;;;;;50.58;22.35;;;-1.20;99.90;;;;;;5086088;28;20012;-70
2021/01/31 09:58:31;;;;;;;47.95;21.27;;;-1.10;99.90;;;;;;5088788;28;20027;-69
2021/01/31 10:01:08;;;;;;;40.85;18.67;;;-1.00;99.90;;;;;;5054940;28;20408;-69
2021/01/31 10:03:34;;;;;;;40.38;20.05;;;-1.00;99.90;;;;;;5086776;28;20133;-70
2021/01/31 10:06:13;;;;;;;46.30;19.40;;;-0.90;99.90;;;;;;5085249;28;20035;-68
2021/01/31 10:08:49;;;;;;;45.20;20.30;;;-0.80;99.90;;;;;;5088585;28;20493;-70
2021/01/31 10:11:50;;;;;;;40.08;19.20;;;-0.70;99.90;;;;;;5087291;28;20046;-68
2021/01/31 10:14:47;;;;;;;40.83;20.25;;;-0.80;99.90;;;;;;5086438;28;20024;-69
2021/01/31 10:17:19;;;;;;;34.08;17.35;;;-0.70;99.90;;;;;;5085022;28;20381;-69
2021/01/31 10:19:45;;;;;;;36.10;16.97;;;-0.60;99.90;;;;;;5070887;27;20040;-68
2021/01/31 10:22:30;;;;;;;39.63;17.92;;;-0.50;99.90;;;;;;5069898;28;20603;-68
2021/01/31 10:24:56;;;;;;;36.90;17.95;;;-0.40;99.90;;;;;;5071940;28;20043;-67
2021/01/31 10:27:27;;;;;;;36.58;17.70;;;-0.30;99.90;;;;;;5070119;28;20414;-66
2021/01/31 10:29:55;;;;;;;36.38;16.92;;;-0.30;99.90;;;;;;5064938;28;20029;-70
2021/01/31 10:32:26;;;;;;;33.83;16.38;;;-0.20;99.90;;;;;;5061555;28;20017;-67
2021/01/31 10:34:55;;;;;;;37.65;17.73;;;-0.20;99.90;;;;;;5055294;28;20039;-67
2021/01/31 10:37:37;;;;;;;36.13;16.02;;;-0.10;99.90;;;;;;5048779;28;20049;-69
2021/01/31 10:40:07;;;;;;;30.08;15.50;;;0.20;99.90;;;;;;5065420;28;20473;-67
2021/01/31 10:42:33;;;;;;;32.80;16.45;;;0.20;99.90;;;;;;5068879;28;20040;-67
2021/01/31 10:45:13;;;;;;;32.15;16.13;;;0.40;99.90;;;;;;5068298;28;20578;-68
2021/01/31 10:47:38;;;;;;;34.53;17.48;;;0.40;99.90;;;;;;5068599;28;20146;-68
2021/01/31 10:50:07;;;;;;;36.08;17.60;;;0.30;99.90;;;;;;5067405;28;20112;-72
2021/01/31 10:52:33;;;;;;;29.02;15.27;;;0.30;99.90;;;;;;5039608;28;20051;-68
2021/01/31 10:54:59;;;;;;;31.35;16.20;;;0.60;99.90;;;;;;5054237;28;20111;-71
2021/01/31 10:57:24;;;;;;;29.90;15.07;;;0.80;99.90;;;;;;5065118;28;20131;-70
2021/01/31 10:59:51;;;;;;;31.25;16.92;;;1.10;99.90;;;;;;5067127;28;20020;-71
2021/01/31 11:02:17;;;;;;;33.38;15.30;;;1.00;99.90;;;;;;5065635;28;20049;-71
2021/01/31 11:05:21;;;;;;;31.08;15.52;;;1.10;99.90;;;;;;5066507;28;20028;-70
2021/01/31 11:07:47;;;;;;;33.45;16.67;;;1.00;99.90;;;;;;5074463;28;20022;-72
2021/01/31 11:10:13;;;;;;;30.48;15.10;;;1.10;99.90;;;;;;5069104;28;20020;-70
2021/01/31 11:12:39;;;;;;;28.25;15.25;;;1.20;99.90;;;;;;5066765;28;20020;-69
2021/01/31 11:15:07;;;;;;;30.33;15.75;;;1.30;99.90;;;;;;5066017;28;20047;-69
2021/01/31 11:17:34;;;;;;;32.45;15.45;;;1.20;99.90;;;;;;5063660;28;20050;-69
2021/01/31 11:20:00;;;;;;;34.53;16.80;;;1.10;99.90;;;;;;5086814;28;20396;-67
2021/01/31 11:22:26;;;;;;;33.67;15.75;;;1.10;99.90;;;;;;5087615;28;20123;-69
2021/01/31 11:24:51;;;;;;;34.70;16.38;;;1.20;99.90;;;;;;5085545;28;20062;-69
2021/01/31 11:27:17;;;;;;;25.48;13.80;;;1.40;99.90;;;;;;5087132;28;20404;-70
2021/01/31 11:29:42;;;;;;;29.27;14.52;;;1.80;99.90;;;;;;5067710;28;20043;-70
2021/01/31 11:32:08;;;;;;;29.58;15.15;;;1.80;99.90;;;;;;5086341;28;20076;-71
2021/01/31 11:34:36;;;;;;;28.00;14.20;;;1.80;99.90;;;;;;5052475;28;20012;-71
2021/01/31 11:37:01;;;;;;;29.00;15.55;;;1.80;99.90;;;;;;5086326;28;20429;-70
2021/01/31 11:39:27;;;;;;;30.30;15.60;;;1.60;99.90;;;;;;5085625;28;20067;-72
2021/01/31 11:41:52;;;;;;;31.40;16.10;;;1.60;99.90;;;;;;5084743;28;21000;-70
2021/01/31 11:44:19;;;;;;;40.08;16.17;;;1.40;99.90;;;;;;5084469;28;20591;-70
2021/01/31 11:46:44;;;;;;;32.05;15.55;;;1.60;99.90;;;;;;5084110;28;20103;-70
2021/01/31 11:49:10;;;;;;;26.48;13.50;;;1.90;99.90;;;;;;5084947;28;20150;-68
2021/01/31 11:51:35;;;;;;;29.55;14.88;;;2.00;99.90;;;;;;5088019;28;20103;-69
2021/01/31 11:54:01;;;;;;;27.25;14.70;;;2.10;99.90;;;;;;5083900;28;20466;-69
2021/01/31 11:56:28;;;;;;;32.10;15.05;;;1.70;99.90;;;;;;5083770;28;20036;-69
2021/01/31 11:58:54;;;;;;;26.05;13.88;;;1.60;99.90;;;;;;5084947;28;20032;-68
2021/01/31 12:01:20;;;;;;;26.13;13.93;;;1.80;99.90;;;;;;5086719;28;20040;-69
2021/01/31 12:03:46;;;;;;;27.98;13.65;;;2.20;99.90;;;;;;5085694;28;20024;-67
2021/01/31 12:06:13;;;;;;;29.50;14.95;;;2.50;99.90;;;;;;5068954;28;20028;-70
2021/01/31 12:08:39;;;;;;;29.23;14.48;;;2.50;99.90;;;;;;5088694;28;20020;-71
2021/01/31 12:11:06;;;;;;;31.17;14.35;;;2.50;99.90;;;;;;5094715;28;20028;-70
2021/01/31 12:13:32;;;;;;;26.73;14.18;;;2.70;99.90;;;;;;5085266;28;20024;-71
2021/01/31 12:15:58;;;;;;;25.27;13.65;;;3.10;99.90;;;;;;5058239;28;20025;-70
2021/01/31 12:18:26;;;;;;;24.30;13.38;;;2.70;99.90;;;;;;5080085;28;20501;-69
2021/01/31 12:20:51;;;;;;;28.80;13.98;;;2.40;99.90;;;;;;5069165;28;20098;-69
2021/01/31 12:23:17;;;;;;;27.38;14.18;;;2.30;99.90;;;;;;5061150;28;20065;-70
2021/01/31 12:25:42;;;;;;;23.65;13.15;;;2.50;99.90;;;;;;5071163;28;20186;-70
2021/01/31 12:28:08;;;;;;;27.88;14.85;;;2.40;99.90;;;;;;5065227;28;20033;-70
2021/01/31 12:30:35;;;;;;;27.15;13.70;;;2.50;99.90;;;;;;5070337;28;20032;-68
2021/01/31 12:33:04;;;;;;;29.83;14.05;;;2.90;99.90;;;;;;5071265;28;20024;-71
2021/01/31 12:35:30;;;;;;;25.17;12.98;;;2.80;99.90;;;;;;5065889;28;20504;-70
2021/01/31 12:37:57;;;;;;;27.58;14.40;;;2.80;99.90;;;;;;5053733;28;20025;-69
2021/01/31 12:40:24;;;;;;;24.17;12.80;;;3.10;99.90;;;;;;5065744;28;20047;-70
2021/01/31 12:42:51;;;;;;;26.27;12.73;;;3.60;99.90;;;;;;5068357;28;20032;-71
2021/01/31 12:45:20;;;;;;;25.50;13.27;;;3.70;99.90;;;;;;5052705;28;20111;-71
2021/01/31 12:47:46;;;;;;;26.20;14.40;;;3.90;99.90;;;;;;5051150;28;20029;-71
2021/01/31 12:50:14;;;;;;;24.02;13.73;;;3.50;99.90;;;;;;5073130;28;20120;-69
2021/01/31 12:52:40;;;;;;;20.05;11.80;;;3.30;99.90;;;;;;5066768;28;20048;-70
2021/01/31 12:55:08;;;;;;;24.33;12.63;;;3.30;99.90;;;;;;5071589;28;20012;-70
2021/01/31 12:57:34;;;;;;;21.17;12.32;;;3.80;99.90;;;;;;5071173;28;20020;-71
2021/01/31 13:00:00;;;;;;;21.92;12.65;;;4.40;99.90;;;;;;5052672;28;20470;-72
2021/01/31 13:02:26;;;;;;;22.80;12.68;;;4.00;99.90;;;;;;5035873;28;20048;-72